Time;durP1;ratioP1;P1;durP2;ratioP2;P2;SDS_P1;SDS_P2;PMS_P1;PMS_P2;Temp;Humidity;BMP_temperature;BMP_pressure;BME280_temperature;BME280_humidity;BME280_pressure;Samples;Min_cycle;Max_cycle;Signal;HPM_P1;HPM_P2
2024/01/16 00:00:58;;;;;;;16.87;9.53;;;;;;;3.15;100.00;100135.19;2085424;28;20199;-66
2024/01/16 00:01:58;;;;;;;15.17;9.17;;;;;;;3.08;100.00;100133.25;2087987;28;20192;-66
2024/01/16 00:02:59;;;;;;;20.57;9.90;;;;;;;3.05;100.00;100139.53;2086641;28;20204;-66
2024/01/16 00:03:59;;;;;;;16.20;9.33;;;;;;;3.01;100.00;100144.22;2086125;28;20197;-66
2024/01/16 00:05:00;;;;;;;16.10;9.47;;;;;;;2.74;100.00;100095.75;2086127;28;20668;-66
2024/01/16 00:06:01;;;;;;;15.27;9.73;;;;;;;3.04;100.00;100145.38;2085386;28;20210;-66
2024/01/16 00:07:01;;;;;;;19.83;12.77;;;;;;;3.05;100.00;100145.00;2085317;28;20194;-66
2024/01/16 00:08:02;;;;;;;17.73;10.87;;;;;;;3.06;100.00;100141.06;2087184;28;20194;-66
2024/01/16 00:09:02;;;;;;;19.53;10.87;;;;;;;3.09;100.00;100139.50;2086112;28;20201;-66
2024/01/16 00:10:03;;;;;;;18.00;9.93;;;;;;;3.14;100.00;100142.59;2086162;28;20657;-67
2024/01/16 00:11:04;;;;;;;16.57;8.37;;;;;;;3.16;100.00;100148.50;2086427;28;20206;-67
2024/01/16 00:12:05;;;;;;;12.63;7.27;;;;;;;3.16;100.00;100156.72;2085432;28;20272;-67
2024/01/16 00:13:06;;;;;;;15.63;8.23;;;;;;;2.79;100.00;100085.22;2085379;28;20179;-66
2024/01/16 00:14:06;;;;;;;13.87;7.93;;;;;;;3.23;100.00;100161.41;2087420;28;20737;-66
2024/01/16 00:15:09;;;;;;;12.77;8.07;;;;;;;3.22;100.00;100160.59;2086375;28;20697;-66
2024/01/16 00:16:09;;;;;;;13.27;8.55;;;;;;;3.26;100.00;100171.53;2085566;28;20184;-66
2024/01/16 00:17:11;;;;;;;13.27;7.07;;;;;;;2.22;100.00;100003.59;2085997;28;20662;-66
2024/01/16 00:18:11;;;;;;;12.05;7.13;;;;;;;3.18;100.00;100161.78;2085516;28;20741;-66
2024/01/16 00:19:12;;;;;;;12.67;7.30;;;;;;;2.69;100.00;100088.75;2086006;28;20544;-66
2024/01/16 00:20:13;;;;;;;17.17;8.10;;;;;;;3.12;100.00;100166.88;2087325;28;20220;-66
2024/01/16 00:21:13;;;;;;;12.90;7.20;;;;;;;2.95;100.00;100132.09;2085217;28;20701;-66
2024/01/16 00:22:14;;;;;;;9.77;6.30;;;;;;;2.75;100.00;100098.09;2085481;28;20198;-66
2024/01/16 00:23:14;;;;;;;15.20;7.13;;;;;;;3.15;100.00;100163.38;2085454;28;20199;-67
2024/01/16 00:24:15;;;;;;;11.00;7.57;;;;;;;3.15;100.00;100162.56;2086067;28;21487;-66
2024/01/16 00:25:19;;;;;;;13.17;6.93;;;;;;;2.82;100.00;100109.03;2085376;28;20268;-66
2024/01/16 00:26:21;;;;;;;8.38;5.57;;;;;;;3.10;100.00;100162.97;2087000;28;20184;-66
2024/01/16 00:27:22;;;;;;;13.68;7.88;;;;;;;3.16;100.00;100172.34;2086026;28;20191;-66
2024/01/16 00:28:22;;;;;;;11.30;7.17;;;;;;;3.18;100.00;100180.97;2085992;28;20226;-66
2024/01/16 00:29:23;;;;;;;12.20;6.67;;;;;;;3.12;100.00;100174.28;2085906;28;20266;-66
2024/01/16 00:30:24;;;;;;;11.68;7.50;;;;;;;3.14;100.00;100170.00;2085809;28;21397;-66
2024/01/16 00:31:24;;;;;;;13.87;7.90;;;;;;;2.81;100.00;100137.56;2085955;28;20216;-66
2024/01/16 00:32:25;;;;;;;14.87;7.77;;;;;;;3.13;100.00;100176.66;2087972;28;20193;-66
2024/01/16 00:33:27;;;;;;;12.20;6.80;;;;;;;3.24;100.00;100190.34;2086671;28;20201;-66
2024/01/16 00:34:27;;;;;;;12.40;7.70;;;;;;;3.24;100.00;100191.09;2085819;28;20251;-66
2024/01/16 00:35:28;;;;;;;13.27;7.87;;;;;;;3.32;100.00;100197.34;2085899;28;20189;-66
2024/01/16 00:36:28;;;;;;;15.10;7.77;;;;;;;3.21;100.00;100183.69;2085048;28;20197;-66
2024/01/16 00:37:29;;;;;;;12.53;7.00;;;;;;;3.25;100.00;100203.63;2084862;28;20646;-66
2024/01/16 00:38:33;;;;;;;12.50;7.83;;;;;;;2.80;100.00;100146.97;2087378;28;20534;-66
2024/01/16 00:39:33;;;;;;;11.25;7.00;;;;;;;3.25;100.00;100213.78;2087237;28;20217;-67
2024/01/16 00:40:34;;;;;;;11.73;7.23;;;;;;;3.20;100.00;100216.94;2085657;28;20677;-66
2024/01/16 00:41:34;;;;;;;14.07;7.20;;;;;;;3.19;100.00;100212.63;2085020;28;20236;-66
2024/01/16 00:42:35;;;;;;;13.70;7.63;;;;;;;3.07;100.00;100207.53;2085518;28;20239;-66
2024/01/16 00:43:35;;;;;;;15.43;7.33;;;;;;;3.25;100.00;100233.75;2084988;28;20197;-66
2024/01/16 00:44:36;;;;;;;12.30;6.93;;;;;;;2.89;100.00;100171.19;2085504;28;20189;-66
2024/01/16 00:45:36;;;;;;;13.13;7.20;;;;;;;3.30;100.00;100238.84;2086434;28;20281;-66
2024/01/16 00:46:37;;;;;;;11.80;6.97;;;;;;;3.30;100.00;100244.31;2085527;28;20611;-66
2024/01/16 00:47:37;;;;;;;13.17;6.90;;;;;;;2.17;100.00;100064.88;2085105;28;20283;-66
2024/01/16 00:48:38;;;;;;;11.20;6.50;;;;;;;3.31;100.00;100245.88;2085773;28;20236;-66
2024/01/16 00:49:39;;;;;;;15.23;7.30;;;;;;;3.29;100.00;100250.19;2085108;28;20623;-67
2024/01/16 00:50:39;;;;;;;15.00;7.40;;;;;;;3.25;100.00;100255.66;2086217;28;20190;-67
2024/01/16 00:51:40;;;;;;;14.93;9.07;;;;;;;3.28;100.00;100254.09;2087341;28;20223;-66
2024/01/16 00:52:40;;;;;;;17.03;10.13;;;;;;;2.94;100.00;100204.44;2085023;28;20289;-66
2024/01/16 00:53:42;;;;;;;15.93;8.97;;;;;;;3.23;100.00;100271.69;2084688;28;20662;-66
2024/01/16 00:54:43;;;;;;;13.55;7.13;;;;;;;3.22;100.00;100283.81;2085491;28;20283;-66
2024/01/16 00:55:44;;;;;;;13.13;6.57;;;;;;;2.42;100.00;100153.19;2085096;28;20665;-66
2024/01/16 00:56:44;;;;;;;15.00;8.93;;;;;;;2.11;100.00;100107.44;2085464;28;20574;-66
2024/01/16 00:57:45;;;;;;;11.83;6.67;;;;;;;3.17;100.00;100265.03;2086961;28;20192;-66
2024/01/16 00:58:45;;;;;;;13.23;7.37;;;;;;;3.23;100.00;100271.69;2085697;28;20200;-67
2024/01/16 00:59:46;;;;;;;11.80;6.47;;;;;;;3.24;100.00;100275.97;2085807;28;20246;-67
2024/01/16 01:00:47;;;;;;;10.93;6.75;;;;;;;3.27;100.00;100280.69;2084955;28;20197;-67
2024/01/16 01:01:47;;;;;;;13.60;7.00;;;;;;;3.30;100.00;100290.88;2085734;28;20208;-67
2024/01/16 01:02:48;;;;;;;10.80;6.77;;;;;;;3.32;100.00;100301.41;2086415;28;20263;-67
2024/01/16 01:03:48;;;;;;;12.80;7.33;;;;;;;2.92;100.00;100247.06;2087253;28;20213;-67
2024/01/16 01:04:49;;;;;;;11.33;5.87;;;;;;;3.26;100.00;100294.78;2085411;28;20254;-67
2024/01/16 01:05:50;;;;;;;10.37;7.00;;;;;;;3.34;100.00;100307.31;2085334;28;20200;-67
2024/01/16 01:06:50;;;;;;;9.10;6.23;;;;;;;3.36;100.00;100294.78;2084232;28;20188;-67
2024/01/16 01:07:51;;;;;;;13.83;6.50;;;;;;;3.41;100.00;100301.81;2084924;28;20232;-67
2024/01/16 01:08:51;;;;;;;16.27;7.40;;;;;;;3.26;100.00;100261.91;2086928;28;20223;-67
2024/01/16 01:09:52;;;;;;;12.03;6.93;;;;;;;3.62;100.00;100293.56;2086638;28;20219;-67
2024/01/16 01:10:52;;;;;;;10.60;6.53;;;;;;;3.75;100.00;100295.50;2085998;28;20195;-67
2024/01/16 01:11:53;;;;;;;10.63;6.50;;;;;;;3.79;100.00;100296.28;2085809;28;20207;-67
2024/01/16 01:12:53;;;;;;;13.70;6.37;;;;;;;3.60;100.00;100257.59;2085782;28;20234;-67
2024/01/16 01:13:54;;;;;;;11.50;6.93;;;;;;;3.94;100.00;100294.28;2086114;28;20179;-67
2024/01/16 01:14:54;;;;;;;10.40;5.93;;;;;;;3.94;100.00;100286.88;2087770;28;20217;-67
2024/01/16 01:15:55;;;;;;;10.53;5.97;;;;;;;4.11;100.00;100296.22;2085168;28;20721;-67
2024/01/16 01:16:55;;;;;;;12.60;6.73;;;;;;;4.18;100.00;100290.72;2085332;28;20487;-67
2024/01/16 01:17:56;;;;;;;15.00;6.60;;;;;;;4.26;100.00;100295.00;2085739;28;20197;-67
2024/01/16 01:18:56;;;;;;;9.60;5.17;;;;;;;4.33;100.00;100297.72;2085422;28;20232;-67
2024/01/16 01:19:57;;;;;;;10.67;5.73;;;;;;;4.40;100.00;100292.19;2084650;28;20195;-67
2024/01/16 01:20:57;;;;;;;10.60;5.47;;;;;;;4.44;100.00;100299.22;2087581;28;20186;-67
2024/01/16 01:21:58;;;;;;;13.07;6.20;;;;;;;3.87;100.00;100201.13;2085248;28;20314;-67
2024/01/16 01:22:59;;;;;;;12.00;6.10;;;;;;;4.53;100.00;100296.06;2085493;28;20202;-67
2024/01/16 01:24:00;;;;;;;12.63;6.45;;;;;;;4.56;100.00;100292.53;2085518;28;20195;-67
2024/01/16 01:25:00;;;;;;;9.43;5.20;;;;;;;4.58;100.00;100290.94;2085662;28;20529;-67
2024/01/16 01:26:01;;;;;;;8.27;5.20;;;;;;;4.63;100.00;100284.25;2085231;28;20187;-67
2024/01/16 01:27:02;;;;;;;7.40;4.80;;;;;;;4.65;100.00;100288.16;2087198;28;20222;-67
2024/01/16 01:28:02;;;;;;;13.13;5.77;;;;;;;4.69;100.00;100285.38;2085730;28;20277;-67
2024/01/16 01:29:03;;;;;;;8.00;4.60;;;;;;;4.70;100.00;100282.25;2085762;28;20191;-67
2024/01/16 01:30:04;;;;;;;10.17;4.60;;;;;;;4.75;100.00;100286.53;2085919;28;20269;-67
2024/01/16 01:31:04;;;;;;;6.72;4.47;;;;;;;4.20;100.00;100195.88;2087198;28;20194;-67
2024/01/16 01:32:05;;;;;;;9.80;5.10;;;;;;;4.74;100.00;100265.75;2085954;28;20183;-67
2024/01/16 01:33:05;;;;;;;6.50;3.80;;;;;;;4.84;100.00;100278.63;2088644;28;20198;-67
2024/01/16 01:34:07;;;;;;;7.37;4.17;;;;;;;4.78;100.00;100272.00;2087009;28;20202;-67
2024/01/16 01:35:07;;;;;;;9.00;4.07;;;;;;;4.82;100.00;100275.50;2087235;28;20212;-67
2024/01/16 01:36:08;;;;;;;8.17;4.90;;;;;;;4.94;100.00;100273.09;2086631;28;20195;-67
2024/01/16 01:37:09;;;;;;;7.83;4.20;;;;;;;4.94;100.00;100278.56;2087287;28;20196;-67
2024/01/16 01:38:09;;;;;;;7.10;3.97;;;;;;;4.96;100.00;100286.38;2087391;28;20213;-67
2024/01/16 01:39:11;;;;;;;6.00;3.93;;;;;;;4.90;100.00;100269.56;2089251;28;20259;-67
2024/01/16 01:40:12;;;;;;;6.93;3.50;;;;;;;5.00;100.00;100278.91;2086446;28;20466;-66
2024/01/16 01:41:13;;;;;;;5.28;3.15;;;;;;;4.52;100.00;100207.47;2086409;28;20823;-67
2024/01/16 01:42:15;;;;;;;6.63;3.53;;;;;;;5.07;100.00;100278.88;2086116;28;20195;-67
2024/01/16 01:43:24;;;;;;;8.02;3.58;;;;;;;5.11;100.00;100285.09;2087350;28;20214;-67
2024/01/16 01:44:25;;;;;;;4.82;2.90;;;;;;;5.16;100.00;100287.41;2087202;28;27015;-67
2024/01/16 01:45:25;;;;;;;4.13;2.80;;;;;;;5.14;100.00;100281.56;2086419;28;20186;-67
2024/01/16 01:46:27;;;;;;;4.93;2.80;;;;;;;5.10;100.00;100278.06;2088871;28;20184;-67
2024/01/16 01:47:29;;;;;;;5.05;2.78;;;;;;;5.21;100.00;100289.75;2086541;28;20674;-67
2024/01/16 01:48:31;;;;;;;4.00;2.13;;;;;;;5.13;100.00;100289.00;2086495;28;20199;-67
2024/01/16 01:49:32;;;;;;;4.05;2.45;;;;;;;5.15;100.00;100292.16;2087262;28;20212;-67
2024/01/16 01:50:33;;;;;;;4.37;2.53;;;;;;;5.14;100.00;100282.31;2087090;28;20202;-67
2024/01/16 01:51:33;;;;;;;3.47;1.93;;;;;;;4.30;100.00;100162.13;2087332;28;20755;-67
2024/01/16 01:52:35;;;;;;;2.70;1.50;;;;;;;4.68;100.00;100228.94;2087701;28;20559;-67
2024/01/16 01:53:36;;;;;;;2.17;1.42;;;;;;;5.03;100.00;100281.63;2088686;28;20286;-67
2024/01/16 01:54:38;;;;;;;2.38;1.40;;;;;;;4.21;100.00;100150.06;2087308;28;20215;-67
2024/01/16 01:55:39;;;;;;;3.05;1.50;;;;;;;4.68;100.00;100224.25;2087071;28;20196;-67
2024/01/16 01:56:42;;;;;;;1.07;0.93;;;;;;;5.09;100.00;100287.47;2086795;28;20231;-67
2024/01/16 01:57:43;;;;;;;2.25;1.13;;;;;;;5.08;100.00;100288.69;2087097;28;20265;-67
2024/01/16 01:58:46;;;;;;;2.37;1.00;;;;;;;5.14;100.00;100306.28;2087481;28;20188;-67
2024/01/16 01:59:47;;;;;;;1.40;0.80;;;;;;;5.10;100.00;100286.28;2089124;28;20270;-66
2024/01/16 02:00:47;;;;;;;1.57;0.80;;;;;;;5.17;100.00;100288.97;2086677;28;20203;-66
2024/01/16 02:01:49;;;;;;;0.97;0.70;;;;;;;5.03;100.00;100262.41;2086932;28;20338;-66
2024/01/16 02:02:50;;;;;;;1.73;0.77;;;;;;;5.21;100.00;100285.03;2085896;28;20283;-66
2024/01/16 02:03:52;;;;;;;1.77;0.60;;;;;;;5.23;100.00;100287.38;2087259;28;20675;-67
2024/01/16 02:04:53;;;;;;;0.95;0.70;;;;;;;4.01;100.00;100099.66;2087220;28;20561;-66
2024/01/16 02:05:53;;;;;;;1.60;0.70;;;;;;;4.35;100.00;100149.94;2088774;28;20276;-66
2024/01/16 02:06:56;;;;;;;1.43;0.67;;;;;;;5.20;100.00;100299.97;2086392;28;20691;-66
2024/01/16 02:07:58;;;;;;;2.03;0.57;;;;;;;5.21;100.00;100304.25;2086058;28;20202;-66
2024/01/16 02:08:59;;;;;;;0.93;0.60;;;;;;;5.24;100.00;100310.91;2086854;28;20229;-66
2024/01/16 02:10:00;;;;;;;0.95;0.68;;;;;;;5.25;100.00;100307.78;2086937;28;20192;-67
2024/01/16 02:11:00;;;;;;;1.40;0.60;;;;;;;5.11;100.00;100298.84;2086794;28;20182;-67
2024/01/16 02:12:01;;;;;;;0.53;0.50;;;;;;;5.21;100.00;100307.00;2087535;28;20215;-66
2024/01/16 02:13:02;;;;;;;1.10;0.60;;;;;;;5.14;100.00;100301.56;2089163;28;20191;-67
2024/01/16 02:14:02;;;;;;;1.50;0.50;;;;;;;5.03;100.00;100303.59;2086889;28;20207;-66
2024/01/16 02:15:03;;;;;;;0.83;0.50;;;;;;;5.08;100.00;100316.91;2087018;28;20187;-66
2024/01/16 02:16:05;;;;;;;1.20;0.50;;;;;;;4.02;100.00;100150.53;2086936;28;20290;-67
2024/01/16 02:17:06;;;;;;;0.95;0.47;;;;;;;5.08;100.00;100322.41;2086056;28;20253;-67
2024/01/16 02:18:07;;;;;;;0.67;0.40;;;;;;;4.79;100.00;100279.84;2086654;28;20262;-67
2024/01/16 02:19:08;;;;;;;0.57;0.45;;;;;;;4.86;100.00;100295.47;2089020;28;20188;-67
2024/01/16 02:20:09;;;;;;;0.90;0.50;;;;;;;5.14;100.00;100334.50;2087271;28;20334;-67
2024/01/16 02:21:11;;;;;;;1.67;0.70;;;;;;;5.13;100.00;100341.19;2086252;28;20211;-66
2024/01/16 02:22:17;;;;;;;1.52;0.57;;;;;;;5.10;100.00;100335.72;2087400;28;20214;-67
2024/01/16 02:23:27;;;;;;;0.50;0.30;;;;;;;5.06;100.00;100338.50;2087036;28;20196;-66
2024/01/16 02:24:27;;;;;;;0.55;0.40;;;;;;;4.75;100.00;100305.72;2087400;28;20253;-66
2024/01/16 02:25:28;;;;;;;0.67;0.40;;;;;;;5.10;100.00;100360.44;2086581;28;20187;-67
2024/01/16 02:26:30;;;;;;;0.47;0.40;;;;;;;5.15;100.00;100349.03;2088628;28;20194;-66
2024/01/16 02:27:30;;;;;;;0.88;0.50;;;;;;;5.14;100.00;100350.22;2086566;28;20204;-67
2024/01/16 02:28:31;;;;;;;0.33;0.20;;;;;;;5.11;100.00;100360.06;2086973;28;20199;-66
2024/01/16 02:29:31;;;;;;;0.30;0.23;;;;;;;5.15;100.00;100362.78;2086456;28;20244;-66
2024/01/16 02:30:32;;;;;;;0.50;0.40;;;;;;;5.15;100.00;100368.28;2086715;28;20202;-67
2024/01/16 02:31:33;;;;;;;0.30;0.30;;;;;;;5.13;100.00;100371.41;2086697;28;20217;-66
2024/01/16 02:32:34;;;;;;;0.40;0.40;;;;;;;5.12;100.00;100378.09;2088852;28;20586;-67
2024/01/16 02:33:34;;;;;;;0.50;0.30;;;;;;;5.11;100.00;100368.28;2086840;28;20200;-66
2024/01/16 02:34:35;;;;;;;0.20;0.20;;;;;;;5.11;100.00;100370.25;2087334;28;20277;-66
2024/01/16 02:35:35;;;;;;;0.20;0.20;;;;;;;4.96;100.00;100347.59;2086014;28;20449;-66
2024/01/16 02:36:35;;;;;;;0.60;0.30;;;;;;;5.12;100.00;100366.34;2086917;28;20302;-66
2024/01/16 02:37:36;;;;;;;0.20;0.20;;;;;;;5.11;100.00;100378.47;2085823;28;20610;-67
2024/01/16 02:38:37;;;;;;;0.10;0.10;;;;;;;4.62;100.00;100316.38;2088844;28;20252;-66
2024/01/16 02:39:37;;;;;;;0.23;0.23;;;;;;;4.93;100.00;100375.84;2077832;28;20203;-66
2024/01/16 02:40:38;;;;;;;0.20;0.20;;;;;;;5.21;100.00;100396.88;2086114;28;20188;-66
2024/01/16 02:41:38;;;;;;;0.40;0.33;;;;;;;5.15;100.00;100390.25;2086421;28;20302;-67
2024/01/16 02:42:39;;;;;;;0.53;0.30;;;;;;;5.10;100.00;100393.41;2086813;28;20188;-66
2024/01/16 02:43:39;;;;;;;0.20;0.20;;;;;;;5.12;100.00;100399.31;2086742;28;20185;-67
2024/01/16 02:44:40;;;;;;;0.33;0.30;;;;;;;5.04;100.00;100403.25;2088718;28;20249;-66
2024/01/16 02:45:40;;;;;;;0.30;0.30;;;;;;;4.97;100.00;100401.31;2086514;28;20684;-66
2024/01/16 02:46:41;;;;;;;0.10;0.10;;;;;;;4.99;100.00;100409.16;2086668;28;20195;-67
2024/01/16 02:47:41;;;;;;;0.17;0.17;;;;;;;5.02;100.00;100411.13;2086413;28;20230;-67
2024/01/16 02:48:42;;;;;;;0.20;0.20;;;;;;;4.63;100.00;100374.81;2086541;28;20231;-66
2024/01/16 02:49:42;;;;;;;0.20;0.20;;;;;;;4.39;100.00;100338.06;2086290;28;20232;-67
2024/01/16 02:50:43;;;;;;;0.13;0.10;;;;;;;4.66;100.00;100363.06;2088835;28;20202;-67
2024/01/16 02:51:43;;;;;;;0.30;0.30;;;;;;;5.07;100.00;100427.19;2087160;28;20191;-67
2024/01/16 02:52:44;;;;;;;0.10;0.10;;;;;;;5.02;100.00;100425.63;2086712;28;20195;-66
2024/01/16 02:53:44;;;;;;;0.10;0.10;;;;;;;5.02;100.00;100422.88;2087020;28;20203;-66
2024/01/16 02:54:45;;;;;;;0.10;0.10;;;;;;;5.06;100.00;100431.09;2086723;28;20221;-66
2024/01/16 02:55:45;;;;;;;0.53;0.20;;;;;;;4.99;100.00;100422.91;2086591;28;20708;-66
2024/01/16 02:56:47;;;;;;;0.97;0.33;;;;;;;4.88;100.00;100408.44;2087612;28;20246;-66
2024/01/16 02:57:47;;;;;;;0.10;0.10;;;;;;;5.07;100.00;100422.47;2086630;28;20603;-67
2024/01/16 02:58:48;;;;;;;0.47;0.30;;;;;;;5.02;100.00;100422.88;2088457;28;20274;-66
2024/01/16 02:59:48;;;;;;;0.10;0.10;;;;;;;4.94;100.00;100409.59;2086361;28;20202;-66
2024/01/16 03:00:49;;;;;;;0.20;0.20;;;;;;;5.02;100.00;100427.59;2086673;28;20203;-67
2024/01/16 03:01:49;;;;;;;0.47;0.20;;;;;;;5.02;100.00;100428.38;2086179;28;20225;-66
2024/01/16 03:02:50;;;;;;;0.40;0.23;;;;;;;5.05;100.00;100426.78;2086879;28;20745;-66
2024/01/16 03:03:50;;;;;;;0.20;0.20;;;;;;;5.09;100.00;100436.59;2086673;28;20188;-67
2024/01/16 03:04:51;;;;;;;0.20;0.20;;;;;;;5.05;100.00;100426.78;2088527;28;20268;-67
2024/01/16 03:05:51;;;;;;;0.20;0.20;;;;;;;5.07;100.00;100433.44;2086487;28;20196;-66
2024/01/16 03:06:52;;;;;;;0.20;0.20;;;;;;;5.11;100.00;100422.44;2085820;28;20193;-67
2024/01/16 03:07:52;;;;;;;0.27;0.20;;;;;;;5.12;100.00;100432.25;2086634;28;20196;-67
2024/01/16 03:08:53;;;;;;;0.30;0.20;;;;;;;5.07;100.00;100427.19;2087332;28;20728;-66
2024/01/16 03:09:54;;;;;;;0.40;0.30;;;;;;;5.08;100.00;100436.97;2086182;28;20202;-66
2024/01/16 03:10:54;;;;;;;0.40;0.27;;;;;;;5.08;100.00;100451.47;2088501;28;20217;-67
2024/01/16 03:11:55;;;;;;;0.30;0.20;;;;;;;5.02;100.00;100438.59;2086620;28;20206;-67
2024/01/16 03:12:57;;;;;;;0.20;0.20;;;;;;;4.04;100.00;100288.78;2086822;28;20191;-66
2024/01/16 03:13:57;;;;;;;0.20;0.20;;;;;;;4.99;100.00;100434.66;2086192;28;20192;-67
2024/01/16 03:14:58;;;;;;;1.60;0.23;;;;;;;5.04;100.00;100448.00;2086546;28;20558;-67
2024/01/16 03:15:58;;;;;;;0.20;0.10;;;;;;;5.05;100.00;100448.75;2085994;28;20183;-67
2024/01/16 03:16:59;;;;;;;0.20;0.20;;;;;;;4.99;100.00;100444.88;2087929;28;20253;-67
2024/01/16 03:18:00;;;;;;;0.40;0.20;;;;;;;5.10;100.00;100448.34;2086837;28;20191;-66
2024/01/16 03:19:01;;;;;;;0.10;0.10;;;;;;;5.11;100.00;100447.16;2085725;28;20229;-66
2024/01/16 03:20:03;;;;;;;0.10;0.10;;;;;;;5.08;100.00;100454.22;2085745;28;20780;-66
2024/01/16 03:21:07;;;;;;;0.70;0.20;;;;;;;5.10;100.00;100451.09;2086047;28;20790;-66
2024/01/16 03:22:07;;;;;;;0.20;0.10;;;;;;;4.52;100.00;100358.38;2086218;28;20669;-66
2024/01/16 03:23:08;;;;;;;0.10;0.10;;;;;;;5.13;100.00;100453.81;2087945;28;20628;-66
2024/01/16 03:24:10;;;;;;;0.23;0.20;;;;;;;5.16;100.00;100464.00;2086897;28;20202;-67
2024/01/16 03:25:12;;;;;;;0.17;0.17;;;;;;;5.06;100.00;100445.63;2086936;28;20324;-66
2024/01/16 03:26:15;;;;;;;0.30;0.30;;;;;;;5.16;100.00;100466.75;2086380;28;20634;-67
2024/01/16 03:27:16;;;;;;;0.10;0.10;;;;;;;5.08;100.00;100478.94;2086377;28;20184;-66
2024/01/16 03:28:16;;;;;;;0.10;0.10;;;;;;;4.81;100.00;100436.69;2085745;28;20202;-66
2024/01/16 03:29:17;;;;;;;0.10;0.10;;;;;;;5.10;100.00;100479.34;2086332;28;20185;-67
2024/01/16 03:30:17;;;;;;;0.30;0.30;;;;;;;5.08;100.00;100483.69;2088593;28;20719;-67
2024/01/16 03:31:21;;;;;;;0.10;0.10;;;;;;;5.14;100.00;100487.56;2086602;28;20712;-67
2024/01/16 03:32:21;;;;;;;0.22;0.17;;;;;;;5.19;100.00;100500.88;2086385;28;20202;-67
2024/01/16 03:33:22;;;;;;;0.50;0.20;;;;;;;5.12;100.00;100512.69;2086394;28;20672;-67
2024/01/16 03:34:24;;;;;;;0.30;0.10;;;;;;;5.14;100.00;100506.78;2085709;28;20248;-67
2024/01/16 03:35:24;;;;;;;0.10;0.10;;;;;;;4.96;100.00;100503.31;2086337;28;20191;-67
2024/01/16 03:36:25;;;;;;;0.10;0.10;;;;;;;5.11;100.00;100510.31;2088002;28;20274;-67
2024/01/16 03:37:25;;;;;;;0.10;0.10;;;;;;;4.79;100.00;100457.47;2085836;28;20219;-67
2024/01/16 03:38:26;;;;;;;0.10;0.10;;;;;;;4.79;100.00;100462.97;2086524;28;20196;-67
2024/01/16 03:39:27;;;;;;;0.20;0.20;;;;;;;5.22;100.00;100527.53;2085441;28;20711;-67
2024/01/16 03:40:27;;;;;;;4.60;0.30;;;;;;;5.05;100.00;100496.25;2085709;28;20207;-67
2024/01/16 03:41:28;;;;;;;0.27;0.20;;;;;;;4.69;100.00;100434.38;2086120;28;20197;-67
2024/01/16 03:42:28;;;;;;;0.20;0.20;;;;;;;5.16;100.00;100512.66;2088043;28;20223;-67
2024/01/16 03:43:29;;;;;;;0.10;0.10;;;;;;;5.17;100.00;100512.28;2086398;28;20409;-67
2024/01/16 03:44:30;;;;;;;0.10;0.10;;;;;;;5.19;100.00;100507.16;2086806;28;20640;-67
2024/01/16 03:45:31;;;;;;;0.10;0.10;;;;;;;5.28;100.00;100515.00;2085389;28;20196;-67
2024/01/16 03:46:32;;;;;;;0.20;0.20;;;;;;;4.65;100.00;100422.63;2086028;28;20740;-67
2024/01/16 03:47:32;;;;;;;0.10;0.10;;;;;;;5.23;100.00;100498.91;2085315;28;20649;-67
2024/01/16 03:48:32;;;;;;;0.20;0.20;;;;;;;4.56;100.00;100397.56;2087986;28;20187;-67
2024/01/16 03:49:33;;;;;;;0.20;0.10;;;;;;;5.34;100.00;100521.63;2086545;28;20188;-67
2024/01/16 03:50:35;;;;;;;0.30;0.27;;;;;;;5.39;100.00;100519.22;2086674;28;20198;-67
2024/01/16 03:51:36;;;;;;;0.10;0.10;;;;;;;5.39;100.00;100516.47;2084478;28;20193;-67
2024/01/16 03:52:36;;;;;;;0.20;0.20;;;;;;;5.36;100.00;100522.00;2086303;28;20199;-67
2024/01/16 03:53:37;;;;;;;0.80;0.23;;;;;;;5.32;100.00;100515.72;2085505;28;20218;-67
2024/01/16 03:54:37;;;;;;;0.17;0.17;;;;;;;5.31;100.00;100516.91;2088263;28;20188;-67
2024/01/16 03:55:38;;;;;;;0.20;0.20;;;;;;;5.29;100.00;100522.03;2085804;28;20202;-67
2024/01/16 03:56:39;;;;;;;0.53;0.20;;;;;;;5.31;100.00;100520.47;2085884;28;20246;-67
2024/01/16 03:57:39;;;;;;;0.13;0.13;;;;;;;4.74;100.00;100438.69;2085069;28;20572;-67
2024/01/16 03:58:41;;;;;;;0.20;0.20;;;;;;;5.33;100.00;100531.81;2085721;28;20207;-67
2024/01/16 03:59:42;;;;;;;0.10;0.10;;;;;;;5.29;100.00;100528.31;2085232;28;20611;-67
2024/01/16 04:00:43;;;;;;;0.10;0.10;;;;;;;5.27;100.00;100535.38;2088360;28;20268;-67
2024/01/16 04:01:45;;;;;;;0.60;0.30;;;;;;;5.20;100.00;100529.91;2085360;28;20223;-67
2024/01/16 04:02:45;;;;;;;0.52;0.30;;;;;;;5.17;100.00;100541.69;2085886;28;20201;-67
2024/01/16 04:03:46;;;;;;;1.10;0.20;;;;;;;5.17;100.00;100542.50;2086255;28;20203;-67
2024/01/16 04:04:46;;;;;;;0.10;0.10;;;;;;;5.21;100.00;100539.72;2085827;28;20670;-67
2024/01/16 04:05:48;;;;;;;0.10;0.10;;;;;;;5.21;100.00;100546.00;2085877;28;20275;-67
2024/01/16 04:06:48;;;;;;;0.17;0.17;;;;;;;5.08;100.00;100530.38;2087432;28;20212;-67
2024/01/16 04:07:49;;;;;;;0.37;0.20;;;;;;;5.19;100.00;100548.34;2086401;28;20202;-67
2024/01/16 04:08:49;;;;;;;0.20;0.20;;;;;;;5.20;100.00;100546.41;2086160;28;20203;-67
2024/01/16 04:09:50;;;;;;;0.20;0.20;;;;;;;5.18;100.00;100557.03;2085613;28;20199;-67
2024/01/16 04:10:50;;;;;;;0.20;0.20;;;;;;;5.20;100.00;100551.91;2085692;28;20205;-67
2024/01/16 04:11:51;;;;;;;0.10;0.10;;;;;;;5.22;100.00;100553.06;2085949;28;20191;-67
2024/01/16 04:12:52;;;;;;;0.17;0.17;;;;;;;5.23;100.00;100562.09;2087376;28;20198;-67
2024/01/16 04:13:52;;;;;;;0.10;0.10;;;;;;;5.19;100.00;100564.84;2086217;28;20196;-67
2024/01/16 04:14:53;;;;;;;0.20;0.20;;;;;;;5.19;100.00;100562.09;2085210;28;20199;-67
2024/01/16 04:15:53;;;;;;;2.27;0.23;;;;;;;5.19;100.00;100564.84;2086031;28;20195;-67
2024/01/16 04:16:54;;;;;;;0.37;0.20;;;;;;;5.10;100.00;100549.97;2085174;28;20250;-67
2024/01/16 04:17:54;;;;;;;0.10;0.10;;;;;;;5.13;100.00;100569.19;2086134;28;20196;-67
2024/01/16 04:18:55;;;;;;;0.30;0.20;;;;;;;5.19;100.00;100562.09;2088145;28;20668;-67
2024/01/16 04:19:55;;;;;;;0.20;0.20;;;;;;;5.23;100.00;100556.59;2085382;28;20723;-67
2024/01/16 04:20:56;;;;;;;0.10;0.10;;;;;;;4.95;100.00;100524.50;2085497;28;20242;-67
2024/01/16 04:21:56;;;;;;;0.23;0.20;;;;;;;5.17;100.00;100571.91;2086041;28;20223;-67
2024/01/16 04:22:57;;;;;;;0.60;0.30;;;;;;;5.22;100.00;100571.50;2086318;28;20603;-67
2024/01/16 04:23:58;;;;;;;0.25;0.20;;;;;;;5.24;100.00;100571.91;2085228;28;20265;-67
2024/01/16 04:24:59;;;;;;;0.20;0.20;;;;;;;5.15;100.00;100566.84;2087938;28;20237;-67
2024/01/16 04:25:59;;;;;;;0.47;0.27;;;;;;;5.10;100.00;100589.22;2083744;28;20543;-67
2024/01/16 04:27:00;;;;;;;0.30;0.20;;;;;;;5.22;100.00;100590.72;2085699;28;20649;-67
2024/01/16 04:28:01;;;;;;;0.10;0.10;;;;;;;5.08;100.00;100568.81;2085883;28;20270;-67
2024/01/16 04:29:02;;;;;;;0.40;0.30;;;;;;;5.17;100.00;100604.88;2085309;28;20215;-67
2024/01/16 04:30:03;;;;;;;0.80;0.20;;;;;;;5.16;100.00;100608.81;2084996;28;20180;-67
2024/01/16 04:31:04;;;;;;;0.50;0.50;;;;;;;5.12;100.00;100597.84;2088076;28;20227;-67
2024/01/16 04:32:05;;;;;;;0.28;0.20;;;;;;;5.13;100.00;100601.38;2085957;28;20672;-67
2024/01/16 04:33:05;;;;;;;0.10;0.10;;;;;;;5.21;100.00;100608.41;2086006;28;20593;-67
2024/01/16 04:34:06;;;;;;;0.20;0.20;;;;;;;4.33;100.00;100476.81;2085493;28;20325;-67
2024/01/16 04:35:07;;;;;;;0.20;0.20;;;;;;;5.24;100.00;100618.59;2085948;28;20204;-67
2024/01/16 04:36:07;;;;;;;0.23;0.20;;;;;;;5.10;100.00;100618.63;2084574;28;20238;-67
2024/01/16 04:37:08;;;;;;;0.30;0.20;;;;;;;5.20;100.00;100628.81;2087426;28;20229;-67
2024/01/16 04:38:08;;;;;;;0.50;0.20;;;;;;;5.22;100.00;100637.44;2085164;28;20196;-67
2024/01/16 04:39:09;;;;;;;0.57;0.43;;;;;;;5.21;100.00;100641.38;2085956;28;20192;-67
2024/01/16 04:40:10;;;;;;;0.23;0.20;;;;;;;5.16;100.00;100636.28;2085179;28;20269;-67
2024/01/16 04:41:10;;;;;;;0.30;0.20;;;;;;;5.13;100.00;100648.84;2085835;28;20217;-67
2024/01/16 04:42:11;;;;;;;0.93;0.30;;;;;;;5.15;100.00;100635.50;2085373;28;20509;-67